createdAt,value
2022-10-29T00:00:25.060Z,3.35
2022-10-29T00:04:29.166Z,2.72
2022-10-29T00:08:33.402Z,2.60
2022-10-29T00:12:36.168Z,2.95
2022-10-29T00:16:40.814Z,2.85
2022-10-29T00:20:44.905Z,2.47
2022-10-29T00:24:47.684Z,2.90
2022-10-29T00:28:53.277Z,2.72
2022-10-29T00:32:56.297Z,3.17
2022-10-29T00:37:00.500Z,3.55
2022-10-29T00:41:03.896Z,2.25
2022-10-29T00:45:07.817Z,2.55
2022-10-29T00:49:11.705Z,3.00
2022-10-29T00:53:17.515Z,3.20
2022-10-29T00:57:26.169Z,2.88
2022-10-29T01:01:29.108Z,2.58
2022-10-29T01:05:34.578Z,2.70
2022-10-29T01:09:38.836Z,3.63
2022-10-29T01:13:56.173Z,2.40
2022-10-29T01:18:10.513Z,2.75
2022-10-29T01:22:20.078Z,2.88
2022-10-29T01:27:00.432Z,2.60
2022-10-29T01:31:28.353Z,2.58
2022-10-29T01:35:40.561Z,2.67
2022-10-29T01:39:46.849Z,2.67
2022-10-29T01:43:54.425Z,7.65
2022-10-29T01:48:03.845Z,3.97
2022-10-29T01:52:08.880Z,2.75
2022-10-29T01:56:11.586Z,2.75
2022-10-29T02:00:17.188Z,3.03
2022-10-29T02:04:41.926Z,2.60
2022-10-29T02:08:52.642Z,2.58
2022-10-29T02:12:56.631Z,3.25
2022-10-29T02:17:00.670Z,2.10
2022-10-29T02:21:04.869Z,3.00
2022-10-29T02:25:09.056Z,2.58
2022-10-29T02:29:11.810Z,3.10
2022-10-29T02:33:14.505Z,2.85
2022-10-29T02:37:18.589Z,3.90
2022-10-29T02:41:21.276Z,2.70
2022-10-29T02:45:24.010Z,3.38
2022-10-29T02:49:26.756Z,3.28
2022-10-29T02:53:30.820Z,2.22
2022-10-29T02:57:33.549Z,3.00
2022-10-29T03:01:36.443Z,2.53
2022-10-29T03:05:39.299Z,2.47
2022-10-29T03:09:43.382Z,3.35
2022-10-29T03:13:46.073Z,3.08
2022-10-29T03:17:48.751Z,3.03
2022-10-29T03:21:51.445Z,3.70
2022-10-29T03:25:56.706Z,2.50
2022-10-29T03:29:59.489Z,2.88
2022-10-29T03:34:02.299Z,2.90
2022-10-29T03:38:05.013Z,2.80
2022-10-29T03:42:09.032Z,2.92
2022-10-29T03:46:11.731Z,3.33
2022-10-29T03:50:14.568Z,2.47
2022-10-29T03:54:17.242Z,2.92
2022-10-29T03:58:21.812Z,2.40
2022-10-29T04:02:25.512Z,2.30
2022-10-29T04:06:28.326Z,2.83
2022-10-29T04:10:31.259Z,2.63
2022-10-29T04:14:35.446Z,3.80
2022-10-29T04:18:38.178Z,3.03
2022-10-29T04:31:27.690Z,3.35
2022-10-29T04:35:30.669Z,3.25
2022-10-29T04:39:33.488Z,4.20
2022-10-29T04:43:36.361Z,2.80
2022-10-29T04:47:40.398Z,2.85
2022-10-29T04:51:43.096Z,2.95
2022-10-29T04:55:46.468Z,3.03
2022-10-29T04:59:49.194Z,4.28
2022-10-29T05:03:55.686Z,2.90
2022-10-29T05:08:03.094Z,3.15
2022-10-29T05:12:06.292Z,2.85
2022-10-29T05:16:09.084Z,2.75
2022-10-29T05:20:13.387Z,2.95
2022-10-29T05:24:16.524Z,2.85
2022-10-29T05:28:21.080Z,4.57
2022-10-29T05:32:23.836Z,3.45
2022-10-29T05:36:28.014Z,2.85
2022-10-29T05:40:31.190Z,3.88
2022-10-29T05:44:33.925Z,3.58
2022-10-29T05:48:36.764Z,4.82
2022-10-29T05:52:41.409Z,4.20
2022-10-29T05:56:44.087Z,3.13
2022-10-29T06:00:46.998Z,3.03
2022-10-29T06:04:49.799Z,4.28
2022-10-29T06:08:53.850Z,3.10
2022-10-29T06:12:56.749Z,4.15
2022-10-29T06:16:59.426Z,3.03
2022-10-29T06:21:02.559Z,3.97
2022-10-29T06:25:07.854Z,3.00
2022-10-29T06:29:10.562Z,4.05
2022-10-29T06:33:13.262Z,3.38
2022-10-29T06:37:16.279Z,3.35
2022-10-29T06:41:25.063Z,2.75
2022-10-29T06:45:27.881Z,3.30
2022-10-29T06:49:30.637Z,2.90
2022-10-29T06:53:33.377Z,3.13
2022-10-29T06:57:37.445Z,3.75
2022-10-29T07:01:40.198Z,2.58
2022-10-29T07:05:43.324Z,3.67
2022-10-29T07:09:46.057Z,3.25
2022-10-29T07:13:50.109Z,3.63
2022-10-29T07:17:57.912Z,3.05
2022-10-29T07:22:00.802Z,3.00
2022-10-29T07:26:03.601Z,3.67
2022-10-29T07:30:08.564Z,3.08
2022-10-29T07:34:11.290Z,3.17
2022-10-29T07:38:14.325Z,3.08
2022-10-29T07:42:17.040Z,3.47
2022-10-29T07:46:21.097Z,3.28
2022-10-29T07:50:23.968Z,3.00
2022-10-29T07:54:26.749Z,3.38
2022-10-29T07:58:29.475Z,3.33
2022-10-29T08:02:33.551Z,3.20
2022-10-29T08:06:36.249Z,3.13
2022-10-29T08:10:39.005Z,4.47
2022-10-29T08:14:41.736Z,3.58
2022-10-29T08:18:46.197Z,3.47
2022-10-29T08:22:48.902Z,3.30
2022-10-29T08:26:52.110Z,2.90
2022-10-29T08:30:54.845Z,2.63
2022-10-29T08:34:58.961Z,3.55
2022-10-29T08:39:01.694Z,2.53
2022-10-29T08:43:34.833Z,2.85
2022-10-29T08:47:48.924Z,3.42
2022-10-29T08:51:59.010Z,4.30
2022-10-29T08:56:01.834Z,3.60
2022-10-29T09:04:24.473Z,2.97
2022-10-29T09:08:37.890Z,2.67
2022-10-29T09:12:50.878Z,4.28
2022-10-29T09:16:58.355Z,3.28
2022-10-29T09:21:11.797Z,3.35
2022-10-29T09:25:21.454Z,3.08
2022-10-29T09:29:38.159Z,3.20
2022-10-29T09:33:41.297Z,2.75
2022-10-29T09:37:49.593Z,2.72
2022-10-29T09:41:54.825Z,3.40
2022-10-29T09:46:02.424Z,3.78
2022-10-29T09:50:12.570Z,2.92
2022-10-29T09:54:15.525Z,3.33
2022-10-29T09:58:21.618Z,3.63
2022-10-29T10:02:31.325Z,3.13
2022-10-29T10:07:07.566Z,2.92
2022-10-29T10:11:21.345Z,3.45
2022-10-29T10:15:31.325Z,3.45
2022-10-29T10:19:34.337Z,3.45
2022-10-29T10:23:45.681Z,3.05
2022-10-29T10:27:48.377Z,3.75
2022-10-29T10:32:12.096Z,2.97
2022-10-29T10:36:14.817Z,3.33
2022-10-29T10:40:24.631Z,3.15
2022-10-29T10:44:28.818Z,3.17
2022-10-29T10:52:36.988Z,3.30
2022-10-29T10:56:53.621Z,2.88
2022-10-29T11:01:02.095Z,2.92
2022-10-29T11:05:15.947Z,3.35
2022-10-29T11:09:25.000Z,3.25
2022-10-29T11:13:31.188Z,2.83
2022-10-29T11:17:40.517Z,3.58
2022-10-29T11:21:49.558Z,2.75
2022-10-29T11:25:57.330Z,3.03
2022-10-29T11:30:05.068Z,3.03
2022-10-29T11:34:15.915Z,3.38
2022-10-29T11:38:26.045Z,4.15
2022-10-29T11:42:28.836Z,3.97
2022-10-29T11:46:40.259Z,3.35
2022-10-29T11:50:51.378Z,3.40
2022-10-29T11:55:05.504Z,3.35
2022-10-29T11:59:15.698Z,3.65
2022-10-29T12:03:50.255Z,3.50
2022-10-29T12:08:05.665Z,3.28
2022-10-29T12:12:17.187Z,3.28
2022-10-29T12:16:30.809Z,3.67
2022-10-29T12:20:42.077Z,3.40
2022-10-29T12:24:59.953Z,3.15
2022-10-29T12:29:12.805Z,3.63
2022-10-29T12:33:22.276Z,3.25
2022-10-29T12:37:36.761Z,4.05
2022-10-29T12:41:44.929Z,3.38
2022-10-29T12:50:29.949Z,3.13
2022-10-29T12:54:38.323Z,3.50
2022-10-29T12:58:59.695Z,3.22
2022-10-29T13:03:04.290Z,3.75
2022-10-29T13:07:24.335Z,3.10
2022-10-29T13:11:44.234Z,3.30
2022-10-29T13:15:51.499Z,4.53
2022-10-29T13:19:58.795Z,3.10
2022-10-29T13:24:05.797Z,3.20
2022-10-29T13:28:51.150Z,2.90
2022-10-29T13:32:54.691Z,3.90
2022-10-29T13:37:54.499Z,3.42
2022-10-29T13:41:57.279Z,3.03
2022-10-29T13:46:45.773Z,3.42
2022-10-29T13:50:51.100Z,3.65
2022-10-29T13:54:58.641Z,3.80
2022-10-29T13:59:05.537Z,3.00
2022-10-29T14:03:17.231Z,3.60
2022-10-29T14:07:27.317Z,3.72
2022-10-29T14:11:37.294Z,4.85
2022-10-29T14:15:40.048Z,3.72
2022-10-29T14:19:46.979Z,3.35
2022-10-29T14:24:00.816Z,3.83
2022-10-29T14:28:15.884Z,3.10
2022-10-29T14:32:22.417Z,3.72
2022-10-29T14:36:31.725Z,3.72
2022-10-29T14:40:34.485Z,3.78
2022-10-29T14:44:39.489Z,4.32
2022-10-29T14:48:52.712Z,3.60
2022-10-29T14:52:59.000Z,4.03
2022-10-29T14:57:05.635Z,3.67
2022-10-29T15:01:20.213Z,4.60
2022-10-29T15:05:26.684Z,3.95
2022-10-29T15:09:29.549Z,3.33
2022-10-29T15:13:35.044Z,3.58
2022-10-29T15:17:50.829Z,4.05
2022-10-29T15:21:53.757Z,4.05
2022-10-29T15:26:01.573Z,4.05
2022-10-29T15:30:05.659Z,4.32
2022-10-29T15:34:16.208Z,3.20
2022-10-29T15:39:08.565Z,4.32
2022-10-29T15:43:32.021Z,3.90
2022-10-29T15:47:35.992Z,4.53
2022-10-29T15:51:40.079Z,4.57
2022-10-29T15:55:43.248Z,4.80
2022-10-29T15:59:45.941Z,4.10
2022-10-29T16:03:48.617Z,4.95
2022-10-29T16:07:53.222Z,5.82
2022-10-29T16:11:55.941Z,5.63
2022-10-29T16:15:58.637Z,5.22
2022-10-29T16:20:01.319Z,6.20
2022-10-29T16:24:05.950Z,7.05
2022-10-29T16:28:08.813Z,5.88
2022-10-29T16:32:15.077Z,6.85
2022-10-29T16:36:18.376Z,6.85
2022-10-29T16:40:23.880Z,6.47
2022-10-29T16:44:26.557Z,10.52
2022-10-29T16:48:29.249Z,9.57
2022-10-29T16:52:32.851Z,8.82
2022-10-29T16:56:37.037Z,7.07
2022-10-29T17:00:40.094Z,6.15
2022-10-29T17:04:42.822Z,6.10
2022-10-29T17:08:45.586Z,5.35
2022-10-29T17:12:50.037Z,5.63
2022-10-29T17:16:52.737Z,5.15
2022-10-29T17:20:56.665Z,6.07
2022-10-29T17:24:59.402Z,4.80
2022-10-29T17:29:03.485Z,5.82
2022-10-29T17:33:06.182Z,7.90
2022-10-29T17:37:09.146Z,4.85
2022-10-29T17:41:12.264Z,7.45
2022-10-29T17:45:20.308Z,6.35
2022-10-29T17:49:23.056Z,5.97
2022-10-29T17:53:26.808Z,6.05
2022-10-29T17:57:30.895Z,8.18
2022-10-29T18:01:35.623Z,7.80
2022-10-29T18:05:38.781Z,6.97
2022-10-29T18:09:41.476Z,6.28
2022-10-29T18:13:45.468Z,6.40
2022-10-29T18:17:49.563Z,5.93
2022-10-29T18:21:52.294Z,5.57
2022-10-29T18:26:06.594Z,5.78
2022-10-29T18:30:10.481Z,5.20
2022-10-29T18:34:16.847Z,5.93
2022-10-29T18:38:19.520Z,6.05
2022-10-29T18:42:22.205Z,5.68
2022-10-29T18:46:24.948Z,5.38
2022-10-29T18:50:29.024Z,5.70
2022-10-29T18:54:31.813Z,5.82
2022-10-29T18:58:34.572Z,6.47
2022-10-29T19:02:37.385Z,6.25
2022-10-29T19:06:41.545Z,6.30
2022-10-29T19:10:44.309Z,9.73
2022-10-29T19:14:47.020Z,6.10
2022-10-29T19:18:54.518Z,5.32
2022-10-29T19:22:58.971Z,6.03
2022-10-29T19:27:01.924Z,5.85
2022-10-29T19:31:05.771Z,6.22
2022-10-29T19:35:09.006Z,5.43
2022-10-29T19:39:13.057Z,5.35
2022-10-29T19:43:15.876Z,4.93
2022-10-29T19:47:18.574Z,4.57
2022-10-29T19:51:21.988Z,4.95
2022-10-29T19:55:26.082Z,5.95
2022-10-29T19:59:28.805Z,4.55
2022-10-29T20:03:31.516Z,5.40
2022-10-29T20:07:34.556Z,5.63
2022-10-29T20:11:38.593Z,5.82
2022-10-29T20:15:42.668Z,4.72
2022-10-29T20:19:45.381Z,4.80
2022-10-29T20:23:48.102Z,5.45
2022-10-29T20:27:52.282Z,5.13
2022-10-29T20:31:55.088Z,4.75
2022-10-29T20:35:57.841Z,4.43
2022-10-29T20:40:00.594Z,5.07
2022-10-29T20:44:04.694Z,4.30
2022-10-29T20:48:07.704Z,4.75
2022-10-29T20:52:10.458Z,5.22
2022-10-29T20:56:16.161Z,4.18
2022-10-29T21:00:21.055Z,4.35
2022-10-29T21:04:23.733Z,5.30
2022-10-29T21:12:34.772Z,4.75
2022-10-29T21:16:38.856Z,6.32
2022-10-29T21:20:41.559Z,4.70
2022-10-29T21:24:45.638Z,4.10
2022-10-29T21:28:49.010Z,4.32
2022-10-29T21:32:55.051Z,4.85
2022-10-29T21:36:57.755Z,4.60
2022-10-29T21:41:01.963Z,4.25
2022-10-29T21:45:05.574Z,4.45
2022-10-29T21:49:09.637Z,4.22
2022-10-29T21:53:12.468Z,4.47
2022-10-29T21:57:15.248Z,5.20
2022-10-29T22:01:18.386Z,4.70
2022-10-29T22:05:22.560Z,4.57
2022-10-29T22:09:25.224Z,3.70
2022-10-29T22:13:29.417Z,3.90
2022-10-29T22:17:32.362Z,4.00
2022-10-29T22:21:36.389Z,3.38
2022-10-29T22:25:39.466Z,3.70
2022-10-29T22:29:42.204Z,4.97
2022-10-29T22:33:45.360Z,3.88
2022-10-29T22:37:49.510Z,4.00
2022-10-29T22:41:52.272Z,4.10
2022-10-29T22:45:54.963Z,3.38
2022-10-29T22:49:59.317Z,4.15
2022-10-29T22:54:03.897Z,4.20
2022-10-29T22:58:06.612Z,3.30
2022-10-29T23:02:09.628Z,4.18
2022-10-29T23:06:14.460Z,3.92
2022-10-29T23:10:18.769Z,3.75
2022-10-29T23:14:21.449Z,4.43
2022-10-29T23:18:24.140Z,3.78
2022-10-29T23:22:27.737Z,3.55
2022-10-29T23:26:31.944Z,3.88
2022-10-29T23:30:34.685Z,3.88
2022-10-29T23:34:37.436Z,4.85
2022-10-29T23:38:40.192Z,3.50
2022-10-29T23:42:44.231Z,4.30
2022-10-29T23:46:46.969Z,3.60
2022-10-29T23:50:49.734Z,4.32
2022-10-29T23:54:52.410Z,3.67
2022-10-29T23:58:56.561Z,3.70
